createdAt,value
2023-01-29T00:01:44.885Z,1.00
2023-01-29T00:04:11.598Z,0.77
2023-01-29T00:06:39.374Z,0.90
2023-01-29T00:09:06.077Z,0.88
2023-01-29T00:11:32.719Z,0.98
2023-01-29T00:13:59.363Z,0.90
2023-01-29T00:16:26.086Z,0.80
2023-01-29T00:18:52.821Z,0.80
2023-01-29T00:21:22.227Z,0.90
2023-01-29T00:23:49.617Z,0.93
2023-01-29T00:29:40.003Z,0.80
2023-01-29T00:32:06.625Z,0.75
2023-01-29T00:34:33.281Z,0.90
2023-01-29T00:37:04.714Z,0.90
2023-01-29T00:39:47.363Z,0.90
2023-01-29T00:42:33.030Z,0.90
2023-01-29T00:44:59.728Z,0.98
2023-01-29T00:47:35.310Z,0.80
2023-01-29T00:50:07.995Z,1.00
2023-01-29T00:52:36.337Z,0.90
2023-01-29T00:55:04.705Z,0.80
2023-01-29T00:57:33.377Z,0.90
2023-01-29T01:00:00.597Z,0.80
2023-01-29T01:02:46.249Z,0.73
2023-01-29T01:05:17.755Z,0.80
2023-01-29T01:07:46.769Z,0.80
2023-01-29T01:10:21.840Z,0.63
2023-01-29T01:12:53.892Z,0.70
2023-01-29T01:15:21.096Z,0.80
2023-01-29T01:17:48.827Z,0.73
2023-01-29T01:20:16.111Z,0.80
2023-01-29T01:22:42.818Z,0.90
2023-01-29T01:25:09.877Z,1.02
2023-01-29T01:27:40.853Z,0.75
2023-01-29T01:30:10.909Z,0.80
2023-01-29T01:32:37.863Z,0.85
2023-01-29T01:35:05.361Z,0.90
2023-01-29T01:37:31.984Z,0.73
2023-01-29T01:39:58.783Z,0.80
2023-01-29T01:42:30.372Z,1.10
2023-01-29T01:45:04.506Z,0.80
2023-01-29T01:47:41.648Z,0.75
2023-01-29T01:50:18.975Z,0.90
2023-01-29T01:52:51.901Z,0.90
2023-01-29T01:55:23.090Z,0.98
2023-01-29T01:57:55.382Z,1.00
2023-01-29T02:00:25.448Z,0.95
2023-01-29T02:03:11.130Z,0.90
2023-01-29T02:05:57.666Z,0.90
2023-01-29T02:09:10.551Z,0.80
2023-01-29T02:11:38.241Z,0.60
2023-01-29T02:14:04.990Z,0.70
2023-01-29T02:16:35.209Z,0.70
2023-01-29T02:19:02.557Z,0.90
2023-01-29T02:21:37.965Z,0.80
2023-01-29T02:24:10.663Z,0.75
2023-01-29T02:27:02.982Z,0.80
2023-01-29T02:29:43.774Z,0.70
2023-01-29T02:32:17.198Z,0.80
2023-01-29T02:35:30.052Z,0.80
2023-01-29T02:38:13.060Z,0.80
2023-01-29T02:41:38.398Z,0.80
2023-01-29T02:44:38.506Z,0.70
2023-01-29T02:47:16.927Z,0.88
2023-01-29T02:49:58.899Z,0.80
2023-01-29T02:52:44.486Z,0.90
2023-01-29T02:55:21.824Z,0.70
2023-01-29T02:57:52.157Z,0.70
2023-01-29T03:00:24.271Z,0.80
2023-01-29T03:03:00.225Z,0.80
2023-01-29T03:05:55.692Z,0.98
2023-01-29T03:08:37.078Z,0.80
2023-01-29T03:11:07.457Z,0.80
2023-01-29T03:13:40.802Z,0.80
2023-01-29T03:16:19.066Z,0.75
2023-01-29T03:18:53.700Z,0.88
2023-01-29T03:22:03.467Z,0.65
2023-01-29T03:25:06.426Z,0.75
2023-01-29T03:28:12.076Z,0.80
2023-01-29T03:31:02.952Z,0.70
2023-01-29T03:33:35.428Z,0.90
2023-01-29T03:36:08.433Z,0.85
2023-01-29T03:38:35.000Z,0.85
2023-01-29T03:41:14.070Z,0.70
2023-01-29T03:44:13.998Z,0.68
2023-01-29T03:47:04.678Z,0.80
2023-01-29T03:49:53.477Z,0.70
2023-01-29T03:52:25.676Z,0.57
2023-01-29T03:55:14.320Z,0.80
2023-01-29T03:57:51.099Z,0.80
2023-01-29T04:00:23.124Z,0.90
2023-01-29T04:03:01.689Z,0.90
2023-01-29T04:05:33.960Z,0.90
2023-01-29T04:08:08.624Z,0.68
2023-01-29T04:10:38.753Z,0.60
2023-01-29T04:13:12.196Z,0.68
2023-01-29T04:15:50.787Z,0.60
2023-01-29T04:18:17.478Z,0.70
2023-01-29T04:20:44.228Z,0.80
2023-01-29T04:23:23.174Z,0.70
2023-01-29T04:26:07.057Z,0.80
2023-01-29T04:28:51.836Z,0.80
2023-01-29T04:31:23.184Z,0.70
2023-01-29T04:34:36.826Z,0.70
2023-01-29T04:37:50.724Z,0.60
2023-01-29T04:40:43.073Z,0.77
2023-01-29T04:43:41.668Z,0.70
2023-01-29T04:46:25.356Z,0.70
2023-01-29T04:49:17.503Z,0.73
2023-01-29T04:52:05.952Z,0.57
2023-01-29T04:54:52.076Z,0.80
2023-01-29T04:57:25.473Z,0.60
2023-01-29T05:00:13.449Z,0.73
2023-01-29T05:02:42.456Z,0.80
2023-01-29T05:05:11.128Z,0.70
2023-01-29T05:07:38.867Z,0.70
2023-01-29T05:10:10.445Z,0.75
2023-01-29T05:12:38.278Z,0.80
2023-01-29T05:15:12.208Z,0.80
2023-01-29T05:17:38.819Z,0.70
2023-01-29T05:20:06.188Z,0.70
2023-01-29T05:22:33.180Z,0.73
2023-01-29T05:24:59.750Z,0.70
2023-01-29T05:27:53.012Z,0.80
2023-01-29T05:30:19.765Z,0.70
2023-01-29T05:32:46.410Z,0.60
2023-01-29T05:35:13.532Z,0.57
2023-01-29T05:37:40.067Z,0.70
2023-01-29T05:40:08.696Z,0.80
2023-01-29T05:42:35.303Z,0.70
2023-01-29T05:45:02.055Z,0.70
2023-01-29T05:47:28.693Z,0.60
2023-01-29T05:49:55.305Z,0.57
2023-01-29T05:52:21.916Z,0.80
2023-01-29T05:54:48.948Z,0.60
2023-01-29T05:57:15.543Z,0.73
2023-01-29T05:59:42.139Z,0.70
2023-01-29T06:02:08.746Z,0.60
2023-01-29T06:04:35.546Z,0.55
2023-01-29T06:07:03.332Z,0.50
2023-01-29T06:09:30.043Z,0.80
2023-01-29T06:11:56.670Z,0.55
2023-01-29T06:14:23.249Z,0.75
2023-01-29T06:16:49.788Z,0.65
2023-01-29T06:19:18.044Z,0.80
2023-01-29T06:21:44.609Z,0.60
2023-01-29T06:24:11.254Z,0.80
2023-01-29T06:26:37.921Z,0.55
2023-01-29T06:29:04.585Z,0.63
2023-01-29T06:31:39.842Z,0.65
2023-01-29T06:34:09.950Z,0.73
2023-01-29T06:36:36.625Z,0.65
2023-01-29T06:39:03.862Z,0.80
2023-01-29T06:41:30.589Z,0.70
2023-01-29T06:43:57.131Z,0.70
2023-01-29T06:46:23.692Z,0.68
2023-01-29T06:48:50.286Z,0.70
2023-01-29T06:51:16.931Z,0.80
2023-01-29T06:53:45.983Z,0.60
2023-01-29T06:56:12.948Z,0.60
2023-01-29T06:58:39.550Z,0.68
2023-01-29T07:01:08.182Z,0.70
2023-01-29T07:03:35.348Z,0.70
2023-01-29T07:06:02.198Z,0.90
2023-01-29T07:08:28.843Z,0.70
2023-01-29T07:11:00.096Z,0.70
2023-01-29T07:13:26.698Z,0.60
2023-01-29T07:15:53.339Z,0.60
2023-01-29T07:18:19.924Z,0.85
2023-01-29T07:20:46.600Z,0.80
2023-01-29T07:23:13.953Z,0.60
2023-01-29T07:25:41.036Z,0.60
2023-01-29T07:28:07.664Z,0.70
2023-01-29T07:30:34.558Z,0.70
2023-01-29T07:33:04.090Z,0.70
2023-01-29T07:35:31.855Z,0.60
2023-01-29T07:37:58.431Z,0.80
2023-01-29T07:40:25.080Z,0.68
2023-01-29T07:42:51.697Z,0.75
2023-01-29T07:45:18.275Z,0.80
2023-01-29T07:47:44.854Z,0.80
2023-01-29T07:50:11.796Z,0.90
2023-01-29T07:52:38.337Z,0.82
2023-01-29T07:55:05.241Z,0.80
2023-01-29T07:57:31.804Z,0.80
2023-01-29T07:59:58.368Z,1.00
2023-01-29T08:02:25.246Z,1.00
2023-01-29T08:04:51.848Z,1.00
2023-01-29T08:07:18.385Z,1.20
2023-01-29T08:09:45.770Z,1.13
2023-01-29T08:12:14.189Z,1.10
2023-01-29T08:14:40.770Z,1.50
2023-01-29T08:17:07.436Z,1.33
2023-01-29T08:19:34.120Z,1.20
2023-01-29T08:22:00.649Z,1.33
2023-01-29T08:24:36.056Z,1.10
2023-01-29T08:27:13.853Z,1.20
2023-01-29T08:29:40.431Z,1.30
2023-01-29T08:32:10.343Z,1.50
2023-01-29T08:34:37.156Z,1.35
2023-01-29T08:37:03.772Z,1.10
2023-01-29T08:39:30.368Z,1.30
2023-01-29T08:41:56.995Z,1.17
2023-01-29T08:44:23.612Z,1.17
2023-01-29T08:46:50.135Z,1.10
2023-01-29T08:49:16.659Z,1.00
2023-01-29T08:51:43.249Z,1.30
2023-01-29T08:54:09.796Z,1.38
2023-01-29T08:56:36.323Z,1.20
2023-01-29T08:59:02.913Z,1.50
2023-01-29T09:01:29.550Z,1.10
2023-01-29T09:03:56.163Z,1.20
2023-01-29T09:06:22.904Z,1.10
2023-01-29T09:08:49.799Z,1.10
2023-01-29T09:11:16.405Z,1.30
2023-01-29T09:13:43.421Z,0.98
2023-01-29T09:16:10.367Z,1.00
2023-01-29T09:18:36.939Z,0.95
2023-01-29T09:21:04.036Z,1.35
2023-01-29T09:23:31.094Z,1.25
2023-01-29T09:25:58.058Z,1.10
2023-01-29T09:28:24.867Z,1.30
2023-01-29T09:30:51.579Z,1.40
2023-01-29T09:33:18.590Z,1.30
2023-01-29T09:35:47.994Z,1.30
2023-01-29T09:38:14.602Z,1.67
2023-01-29T09:41:02.448Z,1.80
2023-01-29T09:43:40.970Z,1.65
2023-01-29T09:46:20.608Z,1.65
2023-01-29T09:48:51.160Z,1.73
2023-01-29T09:51:52.300Z,1.80
2023-01-29T09:54:25.930Z,1.30
2023-01-29T09:56:57.071Z,1.30
2023-01-29T09:59:27.017Z,1.30
2023-01-29T10:02:03.184Z,1.30
2023-01-29T10:04:57.969Z,1.52
2023-01-29T10:07:57.752Z,1.25
2023-01-29T10:10:27.058Z,1.10
2023-01-29T10:13:29.677Z,1.27
2023-01-29T10:16:06.860Z,1.08
2023-01-29T10:19:00.862Z,1.13
2023-01-29T10:22:21.726Z,1.10
2023-01-29T10:25:02.937Z,1.10
2023-01-29T10:27:34.769Z,1.38
2023-01-29T10:30:06.327Z,1.35
2023-01-29T10:32:36.694Z,1.10
2023-01-29T10:35:13.378Z,1.23
2023-01-29T10:37:41.589Z,1.13
2023-01-29T10:40:39.856Z,1.15
2023-01-29T10:43:15.130Z,1.27
2023-01-29T10:45:41.846Z,1.23
2023-01-29T10:48:23.208Z,1.60
2023-01-29T10:51:14.405Z,1.30
2023-01-29T10:54:08.448Z,1.20
2023-01-29T10:56:56.265Z,1.10
2023-01-29T10:59:50.296Z,1.02
2023-01-29T11:02:19.772Z,1.02
2023-01-29T11:04:46.731Z,1.30
2023-01-29T11:07:16.165Z,1.05
2023-01-29T11:10:07.699Z,1.00
2023-01-29T11:12:36.533Z,1.00
2023-01-29T11:15:06.747Z,1.30
2023-01-29T11:17:33.701Z,1.10
2023-01-29T11:20:00.304Z,1.15
2023-01-29T11:22:30.525Z,1.30
2023-01-29T11:25:17.537Z,1.17
2023-01-29T11:27:48.533Z,1.10
2023-01-29T11:30:21.703Z,1.20
2023-01-29T11:33:18.124Z,1.10
2023-01-29T11:35:44.752Z,1.38
2023-01-29T11:38:22.571Z,1.10
2023-01-29T11:40:49.896Z,1.13
2023-01-29T11:43:32.458Z,0.90
2023-01-29T11:46:12.308Z,1.02
2023-01-29T11:48:50.125Z,1.10
2023-01-29T11:51:28.691Z,1.00
2023-01-29T11:53:59.700Z,0.98
2023-01-29T11:56:32.457Z,1.20
2023-01-29T11:59:00.001Z,1.10
2023-01-29T12:01:37.539Z,1.00
2023-01-29T12:04:20.436Z,1.00
2023-01-29T12:06:51.853Z,1.00
2023-01-29T12:09:24.609Z,1.23
2023-01-29T12:11:52.533Z,1.10
2023-01-29T12:14:33.415Z,1.25
2023-01-29T12:17:15.495Z,1.08
2023-01-29T12:19:45.375Z,0.88
2023-01-29T12:22:24.745Z,0.80
2023-01-29T12:24:57.753Z,0.98
2023-01-29T12:27:41.772Z,1.00
2023-01-29T12:30:43.276Z,1.00
2023-01-29T12:33:34.271Z,1.10
2023-01-29T12:36:36.921Z,1.00
2023-01-29T12:39:03.751Z,0.90
2023-01-29T12:41:40.187Z,0.90
2023-01-29T12:44:21.508Z,1.00
2023-01-29T12:46:54.263Z,0.98
2023-01-29T12:49:28.223Z,1.02
2023-01-29T12:52:04.220Z,0.82
2023-01-29T12:54:46.212Z,1.00
2023-01-29T12:57:42.637Z,1.10
2023-01-29T13:00:23.987Z,0.80
2023-01-29T13:03:24.547Z,0.90
2023-01-29T13:05:53.145Z,0.95
2023-01-29T13:08:30.937Z,0.93
2023-01-29T13:11:01.498Z,1.10
2023-01-29T13:13:36.148Z,0.95
2023-01-29T13:16:07.566Z,0.90
2023-01-29T13:18:43.578Z,1.00
2023-01-29T13:21:40.691Z,1.00
2023-01-29T13:24:17.095Z,0.90
2023-01-29T13:26:48.785Z,0.90
2023-01-29T13:29:27.478Z,0.98
2023-01-29T13:31:56.573Z,1.00
2023-01-29T13:34:31.649Z,1.00
2023-01-29T13:37:01.468Z,1.00
2023-01-29T13:39:37.789Z,0.95
2023-01-29T13:42:21.430Z,0.93
2023-01-29T13:44:56.574Z,1.10
2023-01-29T13:47:30.285Z,1.10
2023-01-29T13:50:01.430Z,1.20
2023-01-29T13:52:46.145Z,1.20
2023-01-29T13:55:19.172Z,0.88
2023-01-29T13:57:48.821Z,1.00
2023-01-29T14:00:21.466Z,1.00
2023-01-29T14:03:13.669Z,1.00
2023-01-29T14:05:57.169Z,0.80
2023-01-29T14:08:35.966Z,1.00
2023-01-29T14:11:33.587Z,0.90
2023-01-29T14:14:00.275Z,1.00
2023-01-29T14:16:34.609Z,1.00
2023-01-29T14:19:02.877Z,1.10
2023-01-29T14:21:32.964Z,1.00
2023-01-29T14:24:19.970Z,1.00
2023-01-29T14:26:49.508Z,1.02
2023-01-29T14:29:34.419Z,0.98
2023-01-29T14:32:01.404Z,1.00
2023-01-29T14:34:35.140Z,0.90
2023-01-29T14:37:19.342Z,0.95
2023-01-29T14:39:52.139Z,0.90
2023-01-29T14:42:27.198Z,1.00
2023-01-29T14:45:49.207Z,0.90
2023-01-29T14:48:48.556Z,1.00
2023-01-29T14:51:17.716Z,1.00
2023-01-29T14:54:02.371Z,0.90
2023-01-29T14:56:32.477Z,1.08
2023-01-29T14:59:19.098Z,1.00
2023-01-29T15:01:52.284Z,0.80
2023-01-29T15:04:26.075Z,0.93
2023-01-29T15:07:00.955Z,0.90
2023-01-29T15:09:36.449Z,0.88
2023-01-29T15:12:08.401Z,0.95
2023-01-29T15:14:44.375Z,0.98
2023-01-29T15:17:52.225Z,1.00
2023-01-29T15:20:26.626Z,0.90
2023-01-29T15:22:53.406Z,0.98
2023-01-29T15:25:21.531Z,0.82
2023-01-29T15:27:48.683Z,0.90
2023-01-29T15:30:23.260Z,0.77
2023-01-29T15:32:50.616Z,0.90
2023-01-29T15:35:35.788Z,0.93
2023-01-29T15:38:17.835Z,0.90
2023-01-29T15:41:18.612Z,0.80
2023-01-29T15:43:50.256Z,0.80
2023-01-29T15:46:23.992Z,1.00
2023-01-29T15:48:51.741Z,0.93
2023-01-29T15:51:20.912Z,0.80
2023-01-29T15:53:56.854Z,0.95
2023-01-29T15:56:33.188Z,1.00
2023-01-29T15:59:09.339Z,1.10
2023-01-29T16:01:36.564Z,0.80
2023-01-29T16:04:03.992Z,0.80
2023-01-29T16:06:37.529Z,1.00
2023-01-29T16:09:05.372Z,0.90
2023-01-29T16:11:33.831Z,1.33
2023-01-29T16:14:02.984Z,1.40
2023-01-29T16:16:29.609Z,1.33
2023-01-29T16:19:01.242Z,1.88
2023-01-29T16:21:30.692Z,1.80
2023-01-29T16:24:07.372Z,1.83
2023-01-29T16:26:37.390Z,1.33
2023-01-29T16:29:06.724Z,1.20
2023-01-29T16:31:35.186Z,0.98
2023-01-29T16:34:08.828Z,1.10
2023-01-29T16:36:35.746Z,1.10
2023-01-29T16:39:06.521Z,1.10
2023-01-29T16:41:35.942Z,1.10
2023-01-29T16:44:33.278Z,0.98
2023-01-29T16:47:11.307Z,0.90
2023-01-29T16:49:37.813Z,0.90
2023-01-29T16:52:26.428Z,0.95
2023-01-29T16:54:58.641Z,0.80
2023-01-29T16:57:30.860Z,0.82
2023-01-29T17:00:00.146Z,0.80
2023-01-29T17:02:28.073Z,1.00
2023-01-29T17:04:59.479Z,1.00
2023-01-29T17:07:26.728Z,0.90
2023-01-29T17:09:56.244Z,0.80
2023-01-29T17:12:25.952Z,2.25
2023-01-29T17:14:58.729Z,2.65
2023-01-29T17:17:33.560Z,2.00
2023-01-29T17:20:12.092Z,2.13
2023-01-29T17:22:38.693Z,1.55
2023-01-29T17:25:05.714Z,1.30
2023-01-29T17:27:32.261Z,1.30
2023-01-29T17:29:59.414Z,1.20
2023-01-29T17:32:43.526Z,1.10
2023-01-29T17:35:14.254Z,1.05
2023-01-29T17:37:40.956Z,0.85
2023-01-29T17:40:27.193Z,0.90
2023-01-29T17:42:53.776Z,0.80
2023-01-29T17:45:20.539Z,0.95
2023-01-29T17:47:47.179Z,1.00
2023-01-29T17:50:21.368Z,1.00
2023-01-29T17:52:48.246Z,1.00
2023-01-29T17:55:15.181Z,1.00
2023-01-29T17:57:42.097Z,1.00
2023-01-29T18:00:14.874Z,0.90
2023-01-29T18:02:41.585Z,0.90
2023-01-29T18:05:08.369Z,0.90
2023-01-29T18:07:35.925Z,0.90
2023-01-29T18:10:02.722Z,0.90
2023-01-29T18:12:29.276Z,1.00
2023-01-29T18:14:55.878Z,0.73
2023-01-29T18:17:23.295Z,0.80
2023-01-29T18:19:49.845Z,0.82
2023-01-29T18:22:16.462Z,1.00
2023-01-29T18:24:43.594Z,0.88
2023-01-29T18:27:11.400Z,0.93
2023-01-29T18:29:38.224Z,0.82
2023-01-29T18:32:05.177Z,0.88
2023-01-29T18:34:31.759Z,0.95
2023-01-29T18:36:59.695Z,0.80
2023-01-29T18:39:26.265Z,0.90
2023-01-29T18:41:52.810Z,0.95
2023-01-29T18:44:19.524Z,1.02
2023-01-29T18:46:46.087Z,1.10
2023-01-29T18:49:12.661Z,1.00
2023-01-29T18:51:39.207Z,0.95
2023-01-29T18:54:05.984Z,0.85
2023-01-29T18:56:32.524Z,0.98
2023-01-29T18:58:59.184Z,0.80
2023-01-29T19:01:27.062Z,0.80
2023-01-29T19:03:54.021Z,0.82
2023-01-29T19:06:20.663Z,0.82
2023-01-29T19:08:47.816Z,1.00
2023-01-29T19:11:14.632Z,1.00
2023-01-29T19:13:42.457Z,1.05
2023-01-29T19:16:11.001Z,1.00
2023-01-29T19:18:38.056Z,0.80
2023-01-29T19:21:15.394Z,1.00
2023-01-29T19:23:43.112Z,1.02
2023-01-29T19:26:10.110Z,1.00
2023-01-29T19:28:36.954Z,0.90
2023-01-29T19:31:03.685Z,0.90
2023-01-29T19:33:30.405Z,0.73
2023-01-29T19:35:58.016Z,0.90
2023-01-29T19:38:25.067Z,1.00
2023-01-29T19:40:52.425Z,0.93
2023-01-29T19:43:19.356Z,0.90
2023-01-29T19:45:50.232Z,1.02
2023-01-29T19:48:21.457Z,0.90
2023-01-29T19:50:55.679Z,1.10
2023-01-29T19:53:22.992Z,0.90
2023-01-29T19:56:01.817Z,1.10
2023-01-29T19:58:29.393Z,0.88
2023-01-29T20:01:21.040Z,0.85
2023-01-29T20:03:49.251Z,1.00
2023-01-29T20:06:18.119Z,1.08
2023-01-29T20:08:46.460Z,1.08
2023-01-29T20:11:17.500Z,1.20
2023-01-29T20:13:47.129Z,1.20
2023-01-29T20:16:13.780Z,1.00
2023-01-29T20:18:40.407Z,0.95
2023-01-29T20:21:09.311Z,0.90
2023-01-29T20:23:38.602Z,0.95
2023-01-29T20:26:07.688Z,0.80
2023-01-29T20:28:34.882Z,0.70
2023-01-29T20:31:01.835Z,0.95
2023-01-29T20:33:28.981Z,1.00
2023-01-29T20:36:00.344Z,0.95
2023-01-29T20:38:30.411Z,1.00
2023-01-29T20:41:10.225Z,0.90
2023-01-29T20:43:36.933Z,1.00
2023-01-29T20:46:05.232Z,0.93
2023-01-29T20:48:32.968Z,1.08
2023-01-29T20:51:15.359Z,0.90
2023-01-29T20:53:44.959Z,0.90
2023-01-29T20:56:12.063Z,1.10
2023-01-29T20:58:40.728Z,0.90
2023-01-29T21:01:19.263Z,0.95
2023-01-29T21:03:46.989Z,0.88
2023-01-29T21:06:14.117Z,0.90
2023-01-29T21:08:42.278Z,1.00
2023-01-29T21:11:10.390Z,0.98
2023-01-29T21:13:37.173Z,0.80
2023-01-29T21:16:04.121Z,0.80
2023-01-29T21:18:30.747Z,0.95
2023-01-29T21:20:57.452Z,0.88
2023-01-29T21:23:24.068Z,0.98
2023-01-29T21:25:50.626Z,0.90
2023-01-29T21:28:17.468Z,0.80
2023-01-29T21:30:44.452Z,0.90
2023-01-29T21:33:11.162Z,0.85
2023-01-29T21:35:38.303Z,0.90
2023-01-29T21:38:04.965Z,0.90
2023-01-29T21:40:31.860Z,0.80
2023-01-29T21:43:13.516Z,0.93
2023-01-29T21:45:40.922Z,1.00
2023-01-29T21:48:09.176Z,0.90
2023-01-29T21:50:36.069Z,1.00
2023-01-29T21:53:02.841Z,0.88
2023-01-29T21:55:29.878Z,0.82
2023-01-29T21:57:56.523Z,0.80
2023-01-29T22:00:23.156Z,1.05
2023-01-29T22:02:51.022Z,0.80
2023-01-29T22:05:19.984Z,0.90
2023-01-29T22:07:48.256Z,0.90
2023-01-29T22:10:19.266Z,1.00
2023-01-29T22:12:47.047Z,1.00
2023-01-29T22:15:15.316Z,1.00
2023-01-29T22:17:42.215Z,0.80
2023-01-29T22:20:13.168Z,0.90
2023-01-29T22:22:39.797Z,0.90
2023-01-29T22:25:06.694Z,0.88
2023-01-29T22:27:33.858Z,0.90
2023-01-29T22:30:00.695Z,1.00
2023-01-29T22:32:27.404Z,1.10
2023-01-29T22:34:54.122Z,1.00
2023-01-29T22:37:20.749Z,1.00
2023-01-29T22:39:47.379Z,1.10
2023-01-29T22:42:13.935Z,0.98
2023-01-29T22:44:40.558Z,0.90
2023-01-29T22:47:07.156Z,0.93
2023-01-29T22:49:33.734Z,0.98
2023-01-29T22:52:12.285Z,0.93
2023-01-29T22:54:40.616Z,0.82
2023-01-29T22:57:10.247Z,0.95
2023-01-29T22:59:37.004Z,1.00
2023-01-29T23:02:03.820Z,0.90
2023-01-29T23:04:30.488Z,0.90
2023-01-29T23:06:57.432Z,0.90
2023-01-29T23:09:24.261Z,0.90
2023-01-29T23:11:51.004Z,1.00
2023-01-29T23:14:17.931Z,0.93
2023-01-29T23:16:44.506Z,1.02
2023-01-29T23:19:12.074Z,1.02
2023-01-29T23:21:39.617Z,1.00
2023-01-29T23:24:07.272Z,1.00
2023-01-29T23:26:52.748Z,0.85
2023-01-29T23:29:19.313Z,1.00
2023-01-29T23:31:46.005Z,0.95
2023-01-29T23:34:13.555Z,0.90
2023-01-29T23:36:40.169Z,1.00
2023-01-29T23:39:06.857Z,0.88
2023-01-29T23:41:33.533Z,1.00
2023-01-29T23:44:00.132Z,1.00
2023-01-29T23:46:26.840Z,0.90
2023-01-29T23:48:53.436Z,0.80
2023-01-29T23:51:20.069Z,0.95
2023-01-29T23:53:46.629Z,1.10
2023-01-29T23:56:13.273Z,1.00
2023-01-29T23:58:39.830Z,1.00
